createdAt,value
2024-03-05T00:00:12.059Z,7.38
2024-03-05T00:02:42.861Z,5.82
2024-03-05T00:05:10.750Z,6.53
2024-03-05T00:07:37.390Z,6.05
2024-03-05T00:10:04.507Z,4.43
2024-03-05T00:12:31.969Z,3.97
2024-03-05T00:14:58.402Z,3.95
2024-03-05T00:17:24.955Z,3.80
2024-03-05T00:19:52.083Z,3.22
2024-03-05T00:22:19.426Z,3.67
2024-03-05T00:24:46.127Z,3.67
2024-03-05T00:27:12.935Z,3.38
2024-03-05T00:29:39.388Z,3.30
2024-03-05T00:32:06.281Z,3.65
2024-03-05T00:34:32.796Z,3.28
2024-03-05T00:36:59.305Z,2.88
2024-03-05T00:39:25.811Z,2.80
2024-03-05T00:41:52.278Z,3.30
2024-03-05T00:44:18.704Z,3.22
2024-03-05T00:46:45.234Z,3.35
2024-03-05T00:49:13.878Z,3.03
2024-03-05T00:51:41.430Z,2.55
2024-03-05T00:54:07.912Z,3.53
2024-03-05T00:56:37.086Z,3.55
2024-03-05T00:59:04.257Z,3.30
2024-03-05T01:01:31.202Z,2.90
2024-03-05T01:03:59.257Z,3.05
2024-03-05T01:06:25.687Z,2.87
2024-03-05T01:08:52.213Z,3.28
2024-03-05T01:11:18.884Z,2.38
2024-03-05T01:13:45.464Z,2.88
2024-03-05T01:16:12.077Z,2.60
2024-03-05T01:18:38.818Z,2.53
2024-03-05T01:21:07.395Z,3.15
2024-03-05T01:23:34.540Z,3.00
2024-03-05T01:26:01.377Z,2.40
2024-03-05T01:28:31.033Z,2.40
2024-03-05T01:30:59.946Z,2.87
2024-03-05T01:33:26.669Z,2.75
2024-03-05T01:35:53.533Z,2.60
2024-03-05T01:38:22.274Z,2.88
2024-03-05T01:40:49.323Z,2.58
2024-03-05T01:43:16.392Z,2.67
2024-03-05T01:45:44.006Z,2.97
2024-03-05T01:48:12.910Z,2.95
2024-03-05T01:50:39.781Z,3.20
2024-03-05T01:53:12.014Z,3.13
2024-03-05T01:55:40.249Z,3.03
2024-03-05T01:58:10.194Z,2.88
2024-03-05T02:00:37.809Z,2.78
2024-03-05T02:03:06.173Z,3.17
2024-03-05T02:05:34.032Z,2.63
2024-03-05T02:08:03.205Z,3.23
2024-03-05T02:10:32.673Z,3.42
2024-03-05T02:12:59.174Z,3.00
2024-03-05T02:15:25.771Z,2.72
2024-03-05T02:17:52.284Z,3.47
2024-03-05T02:20:18.760Z,3.10
2024-03-05T02:22:47.455Z,3.10
2024-03-05T02:25:16.789Z,2.83
2024-03-05T02:27:45.391Z,2.95
2024-03-05T02:30:13.756Z,2.35
2024-03-05T02:32:42.450Z,2.77
2024-03-05T02:35:10.476Z,3.05
2024-03-05T02:37:41.112Z,2.63
2024-03-05T02:40:15.669Z,2.67
2024-03-05T02:42:43.760Z,2.92
2024-03-05T02:45:12.299Z,3.00
2024-03-05T02:47:43.395Z,2.92
2024-03-05T02:50:10.985Z,3.42
2024-03-05T02:52:41.115Z,3.00
2024-03-05T02:55:11.258Z,3.30
2024-03-05T02:57:42.634Z,3.10
2024-03-05T03:00:10.572Z,3.40
2024-03-05T03:02:38.039Z,3.28
2024-03-05T03:05:06.771Z,3.17
2024-03-05T03:07:34.035Z,3.08
2024-03-05T03:10:00.829Z,2.80
2024-03-05T03:12:27.391Z,3.47
2024-03-05T03:14:54.056Z,3.55
2024-03-05T03:17:20.469Z,3.15
2024-03-05T03:22:18.206Z,3.23
2024-03-05T03:24:44.642Z,2.95
2024-03-05T03:27:12.260Z,3.28
2024-03-05T03:29:41.610Z,3.13
2024-03-05T03:32:11.197Z,3.28
2024-03-05T03:34:41.239Z,3.80
2024-03-05T03:37:10.937Z,3.38
2024-03-05T03:39:37.434Z,3.47
2024-03-05T03:42:04.094Z,3.65
2024-03-05T03:44:30.558Z,3.95
2024-03-05T03:46:57.178Z,4.00
2024-03-05T03:49:27.071Z,4.22
2024-03-05T03:51:54.793Z,3.50
2024-03-05T03:54:22.643Z,3.97
2024-03-05T03:56:49.877Z,4.28
2024-03-05T03:59:16.559Z,4.00
2024-03-05T04:01:47.703Z,4.57
2024-03-05T04:04:14.595Z,4.57
2024-03-05T04:06:41.363Z,3.90
2024-03-05T04:09:14.834Z,5.10
2024-03-05T04:11:44.811Z,4.70
2024-03-05T04:14:11.389Z,5.50
2024-03-05T04:16:41.817Z,4.85
2024-03-05T04:19:08.607Z,4.75
2024-03-05T04:21:45.759Z,5.30
2024-03-05T04:24:14.386Z,5.83
2024-03-05T04:26:42.659Z,5.63
2024-03-05T04:29:18.003Z,5.75
2024-03-05T04:31:50.677Z,5.22
2024-03-05T04:34:22.244Z,5.43
2024-03-05T04:36:53.793Z,5.27
2024-03-05T04:39:23.285Z,5.45
2024-03-05T04:41:49.757Z,4.88
2024-03-05T04:44:16.213Z,4.72
2024-03-05T04:46:42.665Z,5.78
2024-03-05T04:49:09.689Z,5.27
2024-03-05T04:51:36.383Z,5.28
2024-03-05T04:54:03.240Z,4.22
2024-03-05T04:56:29.865Z,5.15
2024-03-05T04:58:56.447Z,4.82
2024-03-05T05:01:23.123Z,4.87
2024-03-05T05:03:49.749Z,5.25
2024-03-05T05:06:16.664Z,5.03
2024-03-05T05:08:43.456Z,4.93
2024-03-05T05:11:10.243Z,5.18
2024-03-05T05:13:36.866Z,5.40
2024-03-05T05:16:03.570Z,4.70
2024-03-05T05:18:30.051Z,5.38
2024-03-05T05:20:57.071Z,5.35
2024-03-05T05:23:23.511Z,6.07
2024-03-05T05:25:50.006Z,6.07
2024-03-05T05:28:16.572Z,5.65
2024-03-05T05:30:43.602Z,5.88
2024-03-05T05:33:10.101Z,5.72
2024-03-05T05:35:38.788Z,5.57
2024-03-05T05:38:05.754Z,4.83
2024-03-05T05:40:32.397Z,6.03
2024-03-05T05:42:59.689Z,5.78
2024-03-05T05:45:26.299Z,6.05
2024-03-05T05:47:53.575Z,5.75
2024-03-05T05:50:23.153Z,6.50
2024-03-05T05:52:53.816Z,6.90
2024-03-05T05:55:25.321Z,7.00
2024-03-05T05:57:53.364Z,7.22
2024-03-05T06:00:25.857Z,6.70
2024-03-05T06:02:56.548Z,6.73
2024-03-05T06:05:27.522Z,6.97
2024-03-05T06:07:55.036Z,6.50
2024-03-05T06:10:25.045Z,7.32
2024-03-05T06:12:51.979Z,6.88
2024-03-05T06:15:18.661Z,6.47
2024-03-05T06:17:46.276Z,6.95
2024-03-05T06:20:14.775Z,7.72
2024-03-05T06:22:43.390Z,7.28
2024-03-05T06:25:11.053Z,8.55
2024-03-05T06:27:37.634Z,8.63
2024-03-05T06:30:08.720Z,8.85
2024-03-05T06:32:38.997Z,8.15
2024-03-05T06:35:06.842Z,7.40
2024-03-05T06:37:33.794Z,7.35
2024-03-05T06:40:00.613Z,8.00
2024-03-05T06:42:31.449Z,7.85
2024-03-05T06:45:06.739Z,7.57
2024-03-05T06:47:40.424Z,7.75
2024-03-05T06:50:08.882Z,7.65
2024-03-05T06:52:54.736Z,8.17
2024-03-05T06:55:40.068Z,8.07
2024-03-05T06:58:06.995Z,7.80
2024-03-05T07:00:33.496Z,8.70
2024-03-05T07:03:00.582Z,8.43
2024-03-05T07:05:28.010Z,8.37
2024-03-05T07:07:54.965Z,7.50
2024-03-05T07:10:22.649Z,7.85
2024-03-05T07:12:51.992Z,8.13
2024-03-05T07:15:18.755Z,8.55
2024-03-05T07:17:45.367Z,8.47
2024-03-05T07:20:23.682Z,8.75
2024-03-05T07:22:51.500Z,8.38
2024-03-05T07:29:04.185Z,8.43
2024-03-05T07:31:31.161Z,9.37
2024-03-05T07:33:57.726Z,8.38
2024-03-05T07:36:24.302Z,9.63
2024-03-05T07:38:50.974Z,9.07
2024-03-05T07:41:29.732Z,9.60
2024-03-05T07:44:02.079Z,9.53
2024-03-05T07:47:43.466Z,9.85
2024-03-05T07:50:13.504Z,9.88
2024-03-05T07:52:41.021Z,10.15
2024-03-05T07:55:10.910Z,10.88
2024-03-05T07:57:40.569Z,10.47
2024-03-05T08:00:14.849Z,11.75
2024-03-05T08:02:48.555Z,10.73
2024-03-05T08:05:18.644Z,9.88
2024-03-05T08:07:46.654Z,11.15
2024-03-05T08:10:14.028Z,12.27
2024-03-05T08:12:44.942Z,12.07
2024-03-05T08:15:13.604Z,12.48
2024-03-05T08:17:41.874Z,11.55
2024-03-05T08:20:09.125Z,12.18
2024-03-05T08:22:35.922Z,12.77
2024-03-05T08:25:10.471Z,13.15
2024-03-05T08:27:40.342Z,13.18
2024-03-05T08:30:10.805Z,14.00
2024-03-05T08:32:40.685Z,14.02
2024-03-05T08:35:11.075Z,13.40
2024-03-05T08:37:37.897Z,14.23
2024-03-05T08:40:05.667Z,13.85
2024-03-05T08:42:33.070Z,13.10
2024-03-05T08:44:59.697Z,13.82
2024-03-05T08:47:26.310Z,12.30
2024-03-05T08:49:53.431Z,12.65
2024-03-05T08:52:21.353Z,12.38
2024-03-05T08:54:48.066Z,11.90
2024-03-05T08:57:14.632Z,13.10
2024-03-05T08:59:41.209Z,12.43
2024-03-05T09:02:07.793Z,12.25
2024-03-05T09:04:34.390Z,12.60
2024-03-05T09:07:02.702Z,12.63
2024-03-05T09:09:32.156Z,11.43
2024-03-05T09:12:01.720Z,11.97
2024-03-05T09:14:28.353Z,11.13
2024-03-05T09:16:54.947Z,11.82
2024-03-05T09:19:25.107Z,11.60
2024-03-05T09:21:51.752Z,12.73
2024-03-05T09:24:20.495Z,11.90
2024-03-05T09:26:48.626Z,12.80
2024-03-05T09:29:16.818Z,13.50
2024-03-05T09:31:44.248Z,14.45
2024-03-05T09:34:11.022Z,14.43
2024-03-05T09:36:38.228Z,12.63
2024-03-05T09:42:45.738Z,13.25
2024-03-05T09:45:18.716Z,14.77
2024-03-05T09:47:48.962Z,14.20
2024-03-05T09:50:17.932Z,15.03
2024-03-05T09:52:47.497Z,14.98
2024-03-05T09:55:15.382Z,15.07
2024-03-05T09:57:42.028Z,14.88
2024-03-05T10:00:11.658Z,14.35
2024-03-05T10:02:39.632Z,15.37
2024-03-05T10:05:10.693Z,15.65
2024-03-05T10:07:37.724Z,16.00
2024-03-05T10:10:05.255Z,16.05
2024-03-05T10:12:31.877Z,17.90
2024-03-05T10:15:22.637Z,17.03
2024-03-05T10:17:51.886Z,16.10
2024-03-05T10:20:35.535Z,16.50
2024-03-05T10:23:05.177Z,15.10
2024-03-05T10:25:37.062Z,16.65
2024-03-05T10:28:04.956Z,16.73
2024-03-05T10:30:44.047Z,15.52
2024-03-05T10:33:11.485Z,14.73
2024-03-05T10:35:39.494Z,14.98
2024-03-05T10:38:10.145Z,15.32
2024-03-05T10:40:37.734Z,14.77
2024-03-05T10:43:06.576Z,15.93
2024-03-05T10:45:42.351Z,15.10
2024-03-05T10:48:11.295Z,14.98
2024-03-05T10:50:40.971Z,15.88
2024-03-05T10:53:11.092Z,16.30
2024-03-05T10:55:39.115Z,16.00
2024-03-05T10:58:12.338Z,15.60
2024-03-05T11:00:40.349Z,15.77
2024-03-05T11:03:11.245Z,17.00
2024-03-05T11:05:43.806Z,14.70
2024-03-05T11:08:13.421Z,16.08
2024-03-05T11:10:43.289Z,17.48
2024-03-05T11:13:12.997Z,15.70
2024-03-05T11:15:40.365Z,16.80
2024-03-05T11:18:29.884Z,16.47
2024-03-05T11:20:56.575Z,15.07
2024-03-05T11:23:27.886Z,15.18
2024-03-05T11:26:02.028Z,15.90
2024-03-05T11:28:28.568Z,15.35
2024-03-05T11:31:09.882Z,16.50
2024-03-05T11:33:36.442Z,14.65
2024-03-05T11:36:14.105Z,15.00
2024-03-05T11:38:56.677Z,14.80
2024-03-05T11:41:27.076Z,14.40
2024-03-05T11:43:54.058Z,14.10
2024-03-05T11:46:40.369Z,16.25
2024-03-05T11:49:08.096Z,16.23
2024-03-05T11:51:41.614Z,14.73
2024-03-05T11:54:09.819Z,15.65
2024-03-05T11:56:37.731Z,15.60
2024-03-05T11:59:04.626Z,15.88
2024-03-05T12:01:31.522Z,15.23
2024-03-05T12:04:01.877Z,16.73
2024-03-05T12:06:28.531Z,16.05
2024-03-05T12:08:58.097Z,15.10
2024-03-05T12:11:24.809Z,16.73
2024-03-05T12:13:51.403Z,15.57
2024-03-05T12:16:17.972Z,15.35
2024-03-05T12:18:44.458Z,16.30
2024-03-05T12:21:11.822Z,15.20
2024-03-05T12:23:42.040Z,15.63
2024-03-05T12:26:10.482Z,15.50
2024-03-05T12:28:37.267Z,15.90
2024-03-05T12:31:04.308Z,16.55
2024-03-05T12:33:31.575Z,16.20
2024-03-05T12:35:59.448Z,15.30
2024-03-05T12:38:26.163Z,16.67
2024-03-05T12:41:02.167Z,16.65
2024-03-05T12:43:30.160Z,16.02
2024-03-05T12:46:03.891Z,15.80
2024-03-05T12:48:33.794Z,16.48
2024-03-05T12:51:01.049Z,16.83
2024-03-05T12:53:27.716Z,15.80
2024-03-05T12:56:02.593Z,15.18
2024-03-05T12:58:41.379Z,14.23
2024-03-05T13:01:08.438Z,14.57
2024-03-05T13:03:35.233Z,14.32
2024-03-05T13:06:02.023Z,14.55
2024-03-05T13:08:28.882Z,12.95
2024-03-05T13:10:56.829Z,13.27
2024-03-05T13:13:23.576Z,13.40
2024-03-05T13:15:50.451Z,13.38
2024-03-05T13:18:17.438Z,13.43
2024-03-05T13:20:44.128Z,13.75
2024-03-05T13:23:10.656Z,13.60
2024-03-05T13:25:37.154Z,13.23
2024-03-05T13:28:04.929Z,13.88
2024-03-05T13:30:31.720Z,13.80
2024-03-05T13:33:02.695Z,14.60
2024-03-05T13:35:31.789Z,14.87
2024-03-05T13:37:59.015Z,13.75
2024-03-05T13:40:25.739Z,13.57
2024-03-05T13:42:52.279Z,14.68
2024-03-05T13:45:19.595Z,14.82
2024-03-05T13:47:46.960Z,14.20
2024-03-05T13:50:15.106Z,13.82
2024-03-05T13:52:46.352Z,15.05
2024-03-05T13:55:14.988Z,14.13
2024-03-05T13:57:41.704Z,13.98
2024-03-05T14:00:10.464Z,13.93
2024-03-05T14:02:37.001Z,13.63
2024-03-05T14:05:04.572Z,12.93
2024-03-05T14:07:31.946Z,12.50
2024-03-05T14:09:58.862Z,13.63
2024-03-05T14:12:25.624Z,12.87
2024-03-05T14:14:52.095Z,13.25
2024-03-05T14:17:18.644Z,12.40
2024-03-05T14:19:45.283Z,12.73
2024-03-05T14:22:12.446Z,12.20
2024-03-05T14:24:39.479Z,11.70
2024-03-05T14:27:06.469Z,12.20
2024-03-05T14:29:33.049Z,11.65
2024-03-05T14:31:59.630Z,12.02
2024-03-05T14:34:28.266Z,10.52
2024-03-05T14:36:54.869Z,12.13
2024-03-05T14:39:22.457Z,12.32
2024-03-05T14:41:49.044Z,11.82
2024-03-05T14:44:16.290Z,12.95
2024-03-05T14:46:43.298Z,13.00
2024-03-05T14:49:12.334Z,12.23
2024-03-05T14:51:39.256Z,13.05
2024-03-05T14:54:08.250Z,13.40
2024-03-05T14:56:37.570Z,14.50
2024-03-05T14:59:05.811Z,13.00
2024-03-05T15:01:33.577Z,13.30
2024-03-05T15:04:01.497Z,13.38
2024-03-05T15:06:28.126Z,13.45
2024-03-05T15:08:54.548Z,13.93
2024-03-05T15:11:21.522Z,14.50
2024-03-05T15:13:48.085Z,14.27
2024-03-05T15:16:15.014Z,13.05
2024-03-05T15:18:41.749Z,13.77
2024-03-05T15:21:15.255Z,14.23
2024-03-05T15:23:42.496Z,13.98
2024-03-05T15:26:11.698Z,13.20
2024-03-05T15:28:38.394Z,13.50
2024-03-05T15:31:10.059Z,13.38
2024-03-05T15:33:41.590Z,14.15
2024-03-05T15:36:09.262Z,13.93
2024-03-05T15:38:36.061Z,13.67
2024-03-05T15:41:05.761Z,14.07
2024-03-05T15:43:34.455Z,13.25
2024-03-05T15:46:01.302Z,12.55
2024-03-05T15:48:27.907Z,13.60
2024-03-05T15:50:54.408Z,12.73
2024-03-05T15:53:25.703Z,13.73
2024-03-05T15:56:02.307Z,12.77
2024-03-05T15:58:44.743Z,14.18
2024-03-05T16:01:12.759Z,12.90
2024-03-05T16:03:52.632Z,12.23
2024-03-05T16:06:29.245Z,12.50
2024-03-05T16:08:55.868Z,13.27
2024-03-05T16:11:25.854Z,12.57
2024-03-05T16:13:55.233Z,12.68
2024-03-05T16:16:23.556Z,12.43
2024-03-05T16:18:50.160Z,13.13
2024-03-05T16:21:17.520Z,12.43
2024-03-05T16:23:44.799Z,12.15
2024-03-05T16:26:11.353Z,13.07
2024-03-05T16:28:39.297Z,12.83
2024-03-05T16:31:06.070Z,12.82
2024-03-05T16:33:33.739Z,11.77
2024-03-05T16:36:00.228Z,12.48
2024-03-05T16:38:26.827Z,13.60
2024-03-05T16:40:54.219Z,12.73
2024-03-05T16:43:20.797Z,14.00
2024-03-05T16:45:47.962Z,12.52
2024-03-05T16:48:14.560Z,12.73
2024-03-05T16:50:41.243Z,12.95
2024-03-05T16:53:09.423Z,13.03
2024-03-05T16:55:36.535Z,13.13
2024-03-05T16:58:05.428Z,12.35
2024-03-05T17:00:47.782Z,13.07
2024-03-05T17:03:20.212Z,13.65
2024-03-05T17:05:53.877Z,11.87
2024-03-05T17:08:21.386Z,12.70
2024-03-05T17:10:49.255Z,13.57
2024-03-05T17:13:20.420Z,13.38
2024-03-05T17:15:52.756Z,13.30
2024-03-05T17:18:20.272Z,13.17
2024-03-05T17:20:46.914Z,13.88
2024-03-05T17:23:21.318Z,13.55
2024-03-05T17:25:51.414Z,14.20
2024-03-05T17:28:18.410Z,13.77
2024-03-05T17:30:45.026Z,13.03
2024-03-05T17:33:14.992Z,13.05
2024-03-05T17:35:42.452Z,12.73
2024-03-05T17:38:11.191Z,13.38
2024-03-05T17:40:38.129Z,12.85
2024-03-05T17:43:05.149Z,14.07
2024-03-05T17:45:32.973Z,13.05
2024-03-05T17:48:06.793Z,13.07
2024-03-05T17:50:37.312Z,12.95
2024-03-05T17:53:06.597Z,13.45
2024-03-05T17:55:37.268Z,12.43
2024-03-05T17:58:05.513Z,14.18
2024-03-05T18:00:42.726Z,13.32
2024-03-05T18:03:11.814Z,13.73
2024-03-05T18:05:38.885Z,13.65
2024-03-05T18:08:05.838Z,14.27
2024-03-05T18:10:35.630Z,13.80
2024-03-05T18:13:03.443Z,13.48
2024-03-05T18:15:31.462Z,14.15
2024-03-05T18:17:58.399Z,14.90
2024-03-05T18:20:24.958Z,13.50
2024-03-05T18:22:51.506Z,14.25
2024-03-05T18:25:18.658Z,14.02
2024-03-05T18:27:54.456Z,15.02
2024-03-05T18:30:34.085Z,13.45
2024-03-05T18:33:01.553Z,13.43
2024-03-05T18:35:29.242Z,13.90
2024-03-05T18:37:55.772Z,15.02
2024-03-05T18:40:23.136Z,13.68
2024-03-05T18:42:51.564Z,14.95
2024-03-05T18:45:21.086Z,14.13
2024-03-05T18:47:59.100Z,14.27
2024-03-05T18:50:30.439Z,12.88
2024-03-05T18:53:02.479Z,15.55
2024-03-05T18:55:31.409Z,14.68
2024-03-05T18:57:58.138Z,15.77
2024-03-05T19:00:24.961Z,15.43
2024-03-05T19:02:54.570Z,16.63
2024-03-05T19:05:23.053Z,15.82
2024-03-05T19:07:50.864Z,15.68
2024-03-05T19:10:19.069Z,15.33
2024-03-05T19:12:46.440Z,14.75
2024-03-05T19:15:14.110Z,15.73
2024-03-05T19:17:42.050Z,16.15
2024-03-05T19:20:11.097Z,17.25
2024-03-05T19:22:39.655Z,16.43
2024-03-05T19:25:11.589Z,16.00
2024-03-05T19:27:39.291Z,15.50
2024-03-05T19:30:11.447Z,15.27
2024-03-05T19:32:41.567Z,14.80
2024-03-05T19:35:12.565Z,13.80
2024-03-05T19:37:43.889Z,13.48
2024-03-05T19:40:17.415Z,13.82
2024-03-05T19:42:45.448Z,14.02
2024-03-05T19:45:12.853Z,14.23
2024-03-05T19:47:39.481Z,14.73
2024-03-05T19:50:06.945Z,14.68
2024-03-05T19:52:34.897Z,14.75
2024-03-05T19:55:01.510Z,13.82
2024-03-05T19:57:28.314Z,14.88
2024-03-05T20:00:01.192Z,15.63
2024-03-05T20:02:29.272Z,14.52
2024-03-05T20:04:55.871Z,14.25
2024-03-05T20:07:25.412Z,14.98
2024-03-05T20:09:51.852Z,14.15
2024-03-05T20:12:18.783Z,13.37
2024-03-05T20:14:45.572Z,13.73
2024-03-05T20:17:12.326Z,13.73
2024-03-05T20:19:40.367Z,14.00
2024-03-05T20:22:09.056Z,13.18
2024-03-05T20:24:36.063Z,14.00
2024-03-05T20:27:03.688Z,14.68
2024-03-05T20:29:33.739Z,13.63
2024-03-05T20:32:01.800Z,13.80
2024-03-05T20:34:28.724Z,13.85
2024-03-05T20:36:55.653Z,14.00
2024-03-05T20:39:22.333Z,13.75
2024-03-05T20:41:48.915Z,12.20
2024-03-05T20:44:15.974Z,10.88
2024-03-05T20:46:43.198Z,10.70
2024-03-05T20:49:14.744Z,10.40
2024-03-05T20:51:41.203Z,9.73
2024-03-05T20:54:07.713Z,9.70
2024-03-05T20:56:34.228Z,10.85
2024-03-05T20:59:01.107Z,11.43
2024-03-05T21:01:27.846Z,10.27
2024-03-05T21:03:54.962Z,12.15
2024-03-05T21:06:23.000Z,11.45
2024-03-05T21:08:49.603Z,11.88
2024-03-05T21:11:16.459Z,12.60
2024-03-05T21:13:43.341Z,12.47
2024-03-05T21:16:11.190Z,12.43
2024-03-05T21:18:38.145Z,13.13
2024-03-05T21:21:06.060Z,12.52
2024-03-05T21:23:35.039Z,14.05
2024-03-05T21:26:13.926Z,12.60
2024-03-05T21:28:51.532Z,13.25
2024-03-05T21:31:18.905Z,13.73
2024-03-05T21:33:45.559Z,12.18
2024-03-05T21:36:12.223Z,11.90
2024-03-05T21:38:38.692Z,11.97
2024-03-05T21:41:09.919Z,12.65
2024-03-05T21:43:36.672Z,12.75
2024-03-05T21:46:05.136Z,12.60
2024-03-05T21:48:31.798Z,13.63
2024-03-05T21:51:06.291Z,14.40
2024-03-05T21:53:36.982Z,14.55
2024-03-05T21:56:03.896Z,14.32
2024-03-05T21:58:30.473Z,13.90
2024-03-05T22:00:57.008Z,14.65
2024-03-05T22:03:23.614Z,13.60
2024-03-05T22:05:50.117Z,14.68
2024-03-05T22:08:16.745Z,14.85
2024-03-05T22:10:43.371Z,15.50
2024-03-05T22:13:09.965Z,15.43
2024-03-05T22:15:36.433Z,14.27
2024-03-05T22:18:03.020Z,14.65
2024-03-05T22:20:29.587Z,13.30
2024-03-05T22:22:56.123Z,13.40
2024-03-05T22:25:22.635Z,14.68
2024-03-05T22:27:49.185Z,15.23
2024-03-05T22:30:15.825Z,16.15
2024-03-05T22:32:42.239Z,15.00
2024-03-05T22:35:11.368Z,14.52
2024-03-05T22:37:41.450Z,13.93
2024-03-05T22:40:09.764Z,14.60
2024-03-05T22:42:36.294Z,15.30
2024-03-05T22:45:04.064Z,16.20
2024-03-05T22:47:30.711Z,14.98
2024-03-05T22:49:58.065Z,14.63
2024-03-05T22:52:24.736Z,14.17
2024-03-05T22:54:51.339Z,15.52
2024-03-05T22:57:17.952Z,13.98
2024-03-05T22:59:44.508Z,14.13
2024-03-05T23:02:12.143Z,13.52
2024-03-05T23:04:39.078Z,14.00
2024-03-05T23:07:06.908Z,13.30
2024-03-05T23:09:35.627Z,13.65
2024-03-05T23:12:02.188Z,13.15
2024-03-05T23:14:28.786Z,13.50
2024-03-05T23:16:55.272Z,14.63
2024-03-05T23:19:21.885Z,15.25
2024-03-05T23:21:48.411Z,17.17
2024-03-05T23:24:14.873Z,18.30
2024-03-05T23:26:41.317Z,19.77
2024-03-05T23:29:07.867Z,18.57
2024-03-05T23:31:37.234Z,18.20
2024-03-05T23:34:04.054Z,18.33
2024-03-05T23:36:30.495Z,19.67
2024-03-05T23:38:57.001Z,18.80
2024-03-05T23:41:29.245Z,18.23
2024-03-05T23:43:58.968Z,18.98
2024-03-05T23:46:25.625Z,18.08
2024-03-05T23:48:52.068Z,18.05
2024-03-05T23:51:18.714Z,18.23
2024-03-05T23:53:45.364Z,18.77
2024-03-05T23:56:12.205Z,18.48
2024-03-05T23:58:40.123Z,17.35
